Aviation Digital Data Service (ADDS)

Output produced by METARs form (1323 UTC 25 October 2014)
found at http://aviationweather.gov/adds/metars/
 
KMHT 251125Z 2512/2612 VRB03KT P6SM SCT200 
     FM251500 28007KT P6SM FEW050 SCT130 
     FM252300 22005KT P6SM SCT050 BKN070